Main page
METAR-TAF:

METAR-TAF

Airports :

Algeciras Heliport

Algeciras, Spain

latitude: 36-07-44N, longitude: 05-26-28W, elevation: 30 m

Current weather observation

The report was made 28 minutes ago, at 04:00 UTC
Wind 16 kt from the East/Northeast
Temperature 15°C
Humidity 94%
Pressure 1025 hPa
Visibility 10 km or more
Few clouds at a height of 2000 ft
Broken clouds at a height of 2400 ft

METAR: LEAG 210400Z AUTO 07016KT 9999 FEW020 BKN024 15/14 Q1025

Time: 05:28 (04:28 UTC)


TAF: missing

Weather observations and forecasts of more than 4000 airports (METAR and TAF reports).

The available stations are represented by yellow and red dots on the map.

Hover mouse over dot to see the name of the station.

Then click to see weather observations and forecasts.

To change the map : click on the green buttons with a black cross to zoom in, on the green button with a dash to zoom out, or on the green arrows for adjacent maps.


METAR-TAF: